createdAt,value
2018-11-06T00:02:02.721Z,32.17
2018-11-06T00:04:36.697Z,33.00
2018-11-06T00:07:05.351Z,31.37
2018-11-06T00:09:34.000Z,30.77
2018-11-06T00:12:02.679Z,29.37
2018-11-06T00:14:31.582Z,36.13
2018-11-06T00:17:00.186Z,32.40
2018-11-06T00:19:29.091Z,32.40
2018-11-06T00:21:57.832Z,33.40
2018-11-06T00:24:26.843Z,34.00
2018-11-06T00:26:55.516Z,32.57
2018-11-06T00:29:24.149Z,35.13
2018-11-06T00:31:52.824Z,32.17
2018-11-06T00:34:21.569Z,34.00
2018-11-06T00:36:50.338Z,39.33
2018-11-06T00:39:18.969Z,32.13
2018-11-06T00:41:47.559Z,31.37
2018-11-06T00:44:16.162Z,29.30
2018-11-06T00:46:44.803Z,38.03
2018-11-06T00:49:13.546Z,37.17
2018-11-06T00:51:42.357Z,31.00
2018-11-06T00:54:12.133Z,32.87
2018-11-06T00:56:40.733Z,32.27
2018-11-06T00:59:10.088Z,29.70
2018-11-06T01:01:39.017Z,32.57
2018-11-06T01:04:08.675Z,32.80
2018-11-06T01:06:37.473Z,30.07
2018-11-06T01:09:09.696Z,35.97
2018-11-06T01:11:38.565Z,34.20
2018-11-06T01:14:07.689Z,36.73
2018-11-06T01:16:36.451Z,36.53
2018-11-06T01:19:05.287Z,33.33
2018-11-06T01:21:34.037Z,31.43
2018-11-06T01:24:03.079Z,32.53
2018-11-06T01:26:32.234Z,33.30
2018-11-06T01:29:01.170Z,31.60
2018-11-06T01:31:30.041Z,31.77
2018-11-06T01:33:58.879Z,36.37
2018-11-06T01:36:27.571Z,34.63
2018-11-06T01:38:56.439Z,35.13
2018-11-06T01:41:25.100Z,36.47
2018-11-06T01:43:54.059Z,33.57
2018-11-06T01:46:22.847Z,31.37
2018-11-06T01:48:51.677Z,31.97
2018-11-06T01:51:20.572Z,33.27
2018-11-06T01:53:49.290Z,33.43
2018-11-06T01:56:18.107Z,31.77
2018-11-06T01:58:46.853Z,35.23
2018-11-06T02:01:15.467Z,33.70
2018-11-06T02:03:44.175Z,30.57
2018-11-06T02:06:12.969Z,31.70
2018-11-06T02:08:41.684Z,28.50
2018-11-06T02:11:10.483Z,31.67
2018-11-06T02:13:39.096Z,28.97
2018-11-06T02:16:08.089Z,28.90
2018-11-06T02:18:36.831Z,35.60
2018-11-06T02:21:05.943Z,82.67
2018-11-06T02:23:34.628Z,38.77
2018-11-06T02:26:03.365Z,29.40
2018-11-06T02:28:32.136Z,32.90
2018-11-06T02:31:00.892Z,31.23
2018-11-06T02:33:29.611Z,34.47
2018-11-06T02:35:58.384Z,36.60
2018-11-06T02:38:27.192Z,31.93
2018-11-06T02:40:55.924Z,34.47
2018-11-06T02:43:24.617Z,32.40
2018-11-06T02:45:53.184Z,34.47
2018-11-06T02:48:21.894Z,31.40
2018-11-06T02:50:50.615Z,30.20
2018-11-06T02:53:19.258Z,29.07
2018-11-06T02:55:47.961Z,30.07
2018-11-06T02:58:16.773Z,32.57
2018-11-06T03:00:45.996Z,32.30
2018-11-06T03:03:14.805Z,34.80
2018-11-06T03:05:43.553Z,31.90
2018-11-06T03:08:12.172Z,36.33
2018-11-06T03:10:41.064Z,34.20
2018-11-06T03:13:09.598Z,30.80
2018-11-06T03:15:38.259Z,33.47
2018-11-06T03:18:07.324Z,28.90
2018-11-06T03:20:36.052Z,59.63
2018-11-06T03:23:04.620Z,31.83
2018-11-06T03:25:33.298Z,31.27
2018-11-06T03:28:01.995Z,34.30
2018-11-06T03:30:30.808Z,31.60
2018-11-06T03:32:59.488Z,48.40
2018-11-06T03:35:28.155Z,93.00
2018-11-06T03:37:56.789Z,34.83
2018-11-06T03:40:25.377Z,100.67
2018-11-06T03:42:54.037Z,50.73
2018-11-06T03:45:22.592Z,34.33
2018-11-06T03:47:51.228Z,26.90
2018-11-06T03:50:19.815Z,26.47
2018-11-06T03:52:48.490Z,27.60
2018-11-06T03:55:17.695Z,29.00
2018-11-06T03:57:46.333Z,26.30
2018-11-06T04:00:15.530Z,28.43
2018-11-06T04:02:44.920Z,26.47
2018-11-06T04:05:14.051Z,30.80
2018-11-06T04:07:42.676Z,30.40
2018-11-06T04:10:12.012Z,27.97
2018-11-06T04:12:41.342Z,26.57
2018-11-06T04:15:11.128Z,29.87
2018-11-06T04:17:39.899Z,27.90
2018-11-06T04:20:09.300Z,23.57
2018-11-06T04:22:38.131Z,25.60
2018-11-06T04:25:07.171Z,30.70
2018-11-06T04:27:35.805Z,27.57
2018-11-06T04:30:05.113Z,25.23
2018-11-06T04:32:33.712Z,25.53
2018-11-06T04:35:02.321Z,20.70
2018-11-06T04:37:31.062Z,22.83
2018-11-06T04:39:59.764Z,20.30
2018-11-06T04:42:28.570Z,26.13
2018-11-06T04:44:57.271Z,29.40
2018-11-06T04:47:26.088Z,23.80
2018-11-06T04:49:55.148Z,31.23
2018-11-06T04:52:23.968Z,43.17
2018-11-06T04:54:52.612Z,23.50
2018-11-06T04:57:21.451Z,24.77
2018-11-06T04:59:50.243Z,22.43
2018-11-06T05:02:19.103Z,28.63
2018-11-06T05:04:47.960Z,39.87
2018-11-06T05:07:16.551Z,27.30
2018-11-06T05:09:45.359Z,25.10
2018-11-06T05:12:14.112Z,28.00
2018-11-06T05:14:42.935Z,24.17
2018-11-06T05:17:11.576Z,22.10
2018-11-06T05:19:40.703Z,22.63
2018-11-06T05:22:09.474Z,21.27
2018-11-06T05:24:38.320Z,22.43
2018-11-06T05:27:07.079Z,19.50
2018-11-06T05:29:35.740Z,20.17
2018-11-06T05:32:05.377Z,24.77
2018-11-06T05:34:34.151Z,21.00
2018-11-06T05:37:02.787Z,21.33
2018-11-06T05:39:31.508Z,23.77
2018-11-06T05:42:00.567Z,32.40
2018-11-06T05:44:29.396Z,21.90
2018-11-06T05:46:58.148Z,25.87
2018-11-06T05:49:26.931Z,31.67
2018-11-06T05:51:55.696Z,28.40
2018-11-06T05:54:24.534Z,26.30
2018-11-06T05:56:53.285Z,26.43
2018-11-06T05:59:22.034Z,27.87
2018-11-06T06:01:50.669Z,26.10
2018-11-06T06:04:19.511Z,23.23
2018-11-06T06:06:48.268Z,22.00
2018-11-06T06:09:17.059Z,21.90
2018-11-06T06:11:45.844Z,21.03
2018-11-06T06:14:14.617Z,26.47
2018-11-06T06:16:43.473Z,20.87
2018-11-06T06:19:12.189Z,22.17
2018-11-06T06:21:41.937Z,22.20
2018-11-06T06:24:10.769Z,23.77
2018-11-06T06:26:39.524Z,23.67
2018-11-06T06:29:08.139Z,24.73
2018-11-06T06:31:36.799Z,24.87
2018-11-06T06:34:05.958Z,22.57
2018-11-06T06:36:34.635Z,25.40
2018-11-06T06:39:03.309Z,23.87
2018-11-06T06:41:32.112Z,25.80
2018-11-06T06:44:00.832Z,26.57
2018-11-06T06:46:29.669Z,25.00
2018-11-06T06:48:58.259Z,24.60
2018-11-06T06:51:27.102Z,23.97
2018-11-06T06:53:56.003Z,26.70
2018-11-06T06:56:24.679Z,27.83
2018-11-06T06:58:53.751Z,25.20
2018-11-06T07:01:22.425Z,25.50
2018-11-06T07:03:51.117Z,25.23
2018-11-06T07:06:21.892Z,23.50
2018-11-06T07:08:50.664Z,22.40
2018-11-06T07:11:19.457Z,24.03
2018-11-06T07:13:48.213Z,22.50
2018-11-06T07:16:17.930Z,23.83
2018-11-06T07:18:46.646Z,26.93
2018-11-06T07:21:15.338Z,27.70
2018-11-06T07:23:44.121Z,25.87
2018-11-06T07:26:14.915Z,24.60
2018-11-06T07:28:43.633Z,25.00
2018-11-06T07:31:12.321Z,26.70
2018-11-06T07:33:41.106Z,25.80
2018-11-06T07:36:12.009Z,26.30
2018-11-06T07:38:40.708Z,27.83
2018-11-06T07:41:09.443Z,25.77
2018-11-06T07:43:38.212Z,26.47
2018-11-06T07:46:10.621Z,28.50
2018-11-06T07:48:39.672Z,29.00
2018-11-06T07:51:08.456Z,28.50
2018-11-06T07:53:37.416Z,25.37
2018-11-06T07:56:10.408Z,29.17
2018-11-06T07:58:39.140Z,29.77
2018-11-06T08:01:08.115Z,25.80
2018-11-06T08:03:36.862Z,30.37
2018-11-06T08:06:13.432Z,31.53
2018-11-06T08:08:42.128Z,27.37
2018-11-06T08:11:10.851Z,27.10
2018-11-06T08:13:39.659Z,23.37
2018-11-06T08:16:16.005Z,25.40
2018-11-06T08:18:44.721Z,24.27
2018-11-06T08:21:13.765Z,26.00
2018-11-06T08:23:42.561Z,27.40
2018-11-06T08:26:11.634Z,30.37
2018-11-06T08:28:40.819Z,27.23
2018-11-06T08:31:10.025Z,31.00
2018-11-06T08:33:38.918Z,27.20
2018-11-06T08:36:07.672Z,27.17
2018-11-06T08:38:36.473Z,29.03
2018-11-06T08:41:05.346Z,28.63
2018-11-06T08:43:34.131Z,25.97
2018-11-06T08:46:10.232Z,28.37
2018-11-06T08:48:38.943Z,29.03
2018-11-06T08:51:07.743Z,27.10
2018-11-06T08:53:36.695Z,32.57
2018-11-06T08:56:22.512Z,30.23
2018-11-06T08:58:51.359Z,33.97
2018-11-06T09:01:20.136Z,30.13
2018-11-06T09:03:48.870Z,29.00
2018-11-06T09:06:18.671Z,31.70
2018-11-06T09:08:47.463Z,31.40
2018-11-06T09:11:16.176Z,27.60
2018-11-06T09:13:44.855Z,28.90
2018-11-06T09:16:13.612Z,31.67
2018-11-06T09:18:42.512Z,30.67
2018-11-06T09:21:11.317Z,32.27
2018-11-06T09:23:40.062Z,29.27
2018-11-06T09:26:10.859Z,28.83
2018-11-06T09:28:39.660Z,28.60
2018-11-06T09:31:08.630Z,27.90
2018-11-06T09:33:37.358Z,29.50
2018-11-06T09:36:13.872Z,28.33
2018-11-06T09:38:42.573Z,26.50
2018-11-06T09:41:11.336Z,26.87
2018-11-06T09:43:40.235Z,26.80
2018-11-06T09:46:16.833Z,24.73
2018-11-06T09:48:45.669Z,26.93
2018-11-06T09:51:15.252Z,24.47
2018-11-06T09:53:44.196Z,24.87
2018-11-06T09:56:20.452Z,25.90
2018-11-06T09:58:49.240Z,24.60
2018-11-06T10:01:18.000Z,26.03
2018-11-06T10:03:46.866Z,23.67
2018-11-06T10:06:23.682Z,26.30
2018-11-06T10:08:52.358Z,25.40
2018-11-06T10:11:21.286Z,24.30
2018-11-06T10:13:49.912Z,22.40
2018-11-06T10:16:18.585Z,24.53
2018-11-06T10:18:47.285Z,27.00
2018-11-06T10:21:16.054Z,26.17
2018-11-06T10:23:44.755Z,26.50
2018-11-06T10:26:13.467Z,25.80
2018-11-06T10:28:52.402Z,23.80
2018-11-06T10:31:21.496Z,26.00
2018-11-06T10:33:51.380Z,24.23
2018-11-06T10:36:20.305Z,25.37
2018-11-06T10:38:58.382Z,24.57
2018-11-06T10:41:27.125Z,24.63
2018-11-06T10:43:56.132Z,24.27
2018-11-06T10:46:24.972Z,23.27
2018-11-06T10:49:10.201Z,26.33
2018-11-06T10:51:42.803Z,23.60
2018-11-06T10:54:12.462Z,26.20
2018-11-06T10:56:41.962Z,22.30
2018-11-06T10:59:10.788Z,22.57
2018-11-06T11:01:44.905Z,24.20
2018-11-06T11:04:17.212Z,21.60
2018-11-06T11:06:45.966Z,22.33
2018-11-06T11:09:15.685Z,23.60
2018-11-06T11:11:44.471Z,25.27
2018-11-06T11:14:13.179Z,24.20
2018-11-06T11:16:41.999Z,23.53
2018-11-06T11:19:11.853Z,23.60
2018-11-06T11:21:40.771Z,22.40
2018-11-06T11:24:09.547Z,25.20
2018-11-06T11:26:38.458Z,21.30
2018-11-06T11:29:16.372Z,22.97
2018-11-06T11:31:45.085Z,21.03
2018-11-06T11:34:13.703Z,22.47
2018-11-06T11:36:42.348Z,20.87
2018-11-06T11:39:11.124Z,21.90
2018-11-06T11:41:40.173Z,19.10
2018-11-06T11:44:08.960Z,17.00
2018-11-06T11:46:37.673Z,20.23
2018-11-06T11:49:07.408Z,20.37
2018-11-06T11:51:36.252Z,17.90
2018-11-06T11:54:05.142Z,15.37
2018-11-06T11:56:33.982Z,15.93
2018-11-06T11:59:02.879Z,15.20
2018-11-06T12:01:31.795Z,16.40
2018-11-06T12:04:00.651Z,16.37
2018-11-06T12:06:29.496Z,14.37
2018-11-06T12:08:59.328Z,15.30
2018-11-06T12:11:28.041Z,14.10
2018-11-06T12:13:56.774Z,14.50
2018-11-06T12:16:25.636Z,15.40
2018-11-06T12:19:17.997Z,12.60
2018-11-06T12:21:46.805Z,15.93
2018-11-06T12:24:15.649Z,15.67
2018-11-06T12:26:44.251Z,14.50
2018-11-06T12:29:14.982Z,13.47
2018-11-06T12:31:43.644Z,14.10
2018-11-06T12:34:12.425Z,13.73
2018-11-06T12:36:41.255Z,13.47
2018-11-06T12:39:11.149Z,12.83
2018-11-06T12:41:39.987Z,12.50
2018-11-06T12:44:09.425Z,12.37
2018-11-06T12:46:38.152Z,11.80
2018-11-06T12:49:07.053Z,13.47
2018-11-06T12:51:35.845Z,12.10
2018-11-06T12:54:04.595Z,12.17
2018-11-06T12:56:33.300Z,12.27
2018-11-06T12:59:04.156Z,11.70
2018-11-06T13:01:32.932Z,11.10
2018-11-06T13:04:03.049Z,11.07
2018-11-06T13:06:31.829Z,14.17
2018-11-06T13:09:10.299Z,11.90
2018-11-06T13:11:39.503Z,11.53
2018-11-06T13:14:08.965Z,12.03
2018-11-06T13:16:38.336Z,12.60
2018-11-06T13:19:09.294Z,10.67
2018-11-06T13:21:38.060Z,11.63
2018-11-06T13:24:06.910Z,10.57
2018-11-06T13:26:35.700Z,10.80
2018-11-06T13:29:13.775Z,9.60
2018-11-06T13:31:42.486Z,11.73
2018-11-06T13:34:11.178Z,10.80
2018-11-06T13:36:40.039Z,10.80
2018-11-06T13:39:16.673Z,10.90
2018-11-06T13:41:45.377Z,12.03
2018-11-06T13:44:14.595Z,9.80
2018-11-06T13:46:43.096Z,10.87
2018-11-06T13:49:19.331Z,11.67
2018-11-06T13:51:48.141Z,9.40
2018-11-06T13:54:17.014Z,9.73
2018-11-06T13:56:45.779Z,10.60
2018-11-06T13:59:21.946Z,8.57
2018-11-06T14:01:50.762Z,8.90
2018-11-06T14:04:19.543Z,8.33
2018-11-06T14:06:48.221Z,9.13
2018-11-06T14:09:17.002Z,7.60
2018-11-06T14:11:45.824Z,8.00
2018-11-06T14:14:14.565Z,8.80
2018-11-06T14:16:43.257Z,7.60
2018-11-06T14:19:19.614Z,8.40
2018-11-06T14:21:48.439Z,9.53
2018-11-06T14:24:17.271Z,8.90
2018-11-06T14:26:46.083Z,7.30
2018-11-06T14:29:22.170Z,7.73
2018-11-06T14:31:50.992Z,8.30
2018-11-06T14:34:19.818Z,7.33
2018-11-06T14:36:48.506Z,8.10
2018-11-06T14:39:24.726Z,7.77
2018-11-06T14:41:53.565Z,7.53
2018-11-06T14:44:22.265Z,7.90
2018-11-06T14:46:51.021Z,7.43
2018-11-06T14:49:20.024Z,6.13
2018-11-06T14:51:48.687Z,8.27
2018-11-06T14:54:17.533Z,8.67
2018-11-06T14:56:46.204Z,8.47
2018-11-06T14:59:40.949Z,7.07
2018-11-06T15:02:09.609Z,6.20
2018-11-06T15:04:38.714Z,8.47
2018-11-06T15:07:07.456Z,8.33
2018-11-06T15:09:39.973Z,7.87
2018-11-06T15:12:08.738Z,6.97
2018-11-06T15:14:37.582Z,8.10
2018-11-06T15:17:06.796Z,8.07
2018-11-06T15:19:35.777Z,8.43
2018-11-06T15:22:04.627Z,8.47
2018-11-06T15:24:33.430Z,7.77
2018-11-06T15:27:02.083Z,7.63
2018-11-06T15:29:32.971Z,7.23
2018-11-06T15:32:01.765Z,7.80
2018-11-06T15:34:30.422Z,7.47
2018-11-06T15:36:59.166Z,7.80
2018-11-06T15:39:35.691Z,9.00
2018-11-06T15:42:04.457Z,7.37
2018-11-06T15:44:33.115Z,8.43
2018-11-06T15:47:01.933Z,7.47
2018-11-06T15:49:30.776Z,6.60
2018-11-06T15:51:59.600Z,8.70
2018-11-06T15:54:28.314Z,8.97
2018-11-06T15:56:57.412Z,9.23
2018-11-06T15:59:26.224Z,9.40
2018-11-06T16:01:55.375Z,9.17
2018-11-06T16:04:24.034Z,8.60
2018-11-06T16:06:52.777Z,9.00
2018-11-06T16:09:29.003Z,8.30
2018-11-06T16:11:57.708Z,10.27
2018-11-06T16:14:26.491Z,9.37
2018-11-06T16:16:55.740Z,10.17
2018-11-06T16:19:24.481Z,10.37
2018-11-06T16:21:53.276Z,9.60
2018-11-06T16:24:22.170Z,11.17
2018-11-06T16:26:50.778Z,9.87
2018-11-06T16:29:26.670Z,11.17
2018-11-06T16:31:55.369Z,12.97
2018-11-06T16:34:24.102Z,12.10
2018-11-06T16:36:52.716Z,12.77
2018-11-06T16:39:29.764Z,14.07
2018-11-06T16:41:58.526Z,16.00
2018-11-06T16:44:27.241Z,13.90
2018-11-06T16:46:55.935Z,14.00
2018-11-06T16:49:41.949Z,14.23
2018-11-06T16:52:10.606Z,13.00
2018-11-06T16:54:39.264Z,13.83
2018-11-06T16:57:07.968Z,15.53
2018-11-06T16:59:36.627Z,15.33
2018-11-06T17:02:05.504Z,15.87
2018-11-06T17:04:34.116Z,16.73
2018-11-06T17:07:02.816Z,15.60
2018-11-06T17:09:31.508Z,14.73
2018-11-06T17:12:00.228Z,17.20
2018-11-06T17:14:28.930Z,16.73
2018-11-06T17:16:57.601Z,17.60
2018-11-06T17:19:26.320Z,18.27
2018-11-06T17:21:55.072Z,17.27
2018-11-06T17:24:23.667Z,15.60
2018-11-06T17:26:53.300Z,16.90
2018-11-06T17:29:21.964Z,18.57
2018-11-06T17:31:51.859Z,21.13
2018-11-06T17:34:20.706Z,19.63
2018-11-06T17:36:49.422Z,17.07
2018-11-06T17:39:18.227Z,19.50
2018-11-06T17:41:47.998Z,17.83
2018-11-06T17:44:16.810Z,21.47
2018-11-06T17:46:45.576Z,17.80
2018-11-06T17:49:14.475Z,19.63
2018-11-06T17:51:44.335Z,21.00
2018-11-06T17:54:13.130Z,16.00
2018-11-06T17:56:41.794Z,16.93
2018-11-06T17:59:10.600Z,17.00
2018-11-06T18:01:46.687Z,18.17
2018-11-06T18:04:15.617Z,16.77
2018-11-06T18:06:44.382Z,15.30
2018-11-06T18:09:13.707Z,16.50
2018-11-06T18:11:49.940Z,15.33
2018-11-06T18:14:18.557Z,15.37
2018-11-06T18:16:47.288Z,16.10
2018-11-06T18:19:15.909Z,19.23
2018-11-06T18:21:44.787Z,17.23
2018-11-06T18:24:13.554Z,18.87
2018-11-06T18:26:42.385Z,17.37
2018-11-06T18:29:11.056Z,18.97
2018-11-06T18:31:43.394Z,18.27
2018-11-06T18:34:12.279Z,17.17
2018-11-06T18:36:41.217Z,18.40
2018-11-06T18:39:12.101Z,19.50
2018-11-06T18:41:51.457Z,18.83
2018-11-06T18:44:20.368Z,18.17
2018-11-06T18:46:49.601Z,17.93
2018-11-06T18:49:18.768Z,19.53
2018-11-06T18:51:48.836Z,18.20
2018-11-06T18:54:17.963Z,19.47
2018-11-06T18:56:47.052Z,18.33
2018-11-06T18:59:16.088Z,17.47
2018-11-06T19:01:45.181Z,17.80
2018-11-06T19:04:14.241Z,21.30
2018-11-06T19:06:43.375Z,20.93
2018-11-06T19:09:13.308Z,21.63
2018-11-06T19:11:42.670Z,19.37
2018-11-06T19:14:12.366Z,20.10
2018-11-06T19:16:41.597Z,18.60
2018-11-06T19:19:10.656Z,20.23
2018-11-06T19:21:39.670Z,21.43
2018-11-06T19:24:08.792Z,18.27
2018-11-06T19:26:37.943Z,19.13
2018-11-06T19:29:07.596Z,18.53
2018-11-06T19:31:36.699Z,19.67
2018-11-06T19:34:06.667Z,19.73
2018-11-06T19:36:35.786Z,20.40
2018-11-06T19:39:08.516Z,21.70
2018-11-06T19:41:37.736Z,18.10
2018-11-06T19:44:07.235Z,18.43
2018-11-06T19:46:36.374Z,18.40
2018-11-06T19:49:05.695Z,17.37
2018-11-06T19:51:35.552Z,18.23
2018-11-06T19:54:04.794Z,18.93
2018-11-06T19:56:33.856Z,19.30
2018-11-06T19:59:03.046Z,19.03
2018-11-06T20:01:33.609Z,19.87
2018-11-06T20:04:03.491Z,22.00
2018-11-06T20:06:36.192Z,19.97
2018-11-06T20:09:07.964Z,21.00
2018-11-06T20:11:39.241Z,21.43
2018-11-06T20:14:10.504Z,20.80
2018-11-06T20:16:40.773Z,19.77
2018-11-06T20:19:12.860Z,22.30
2018-11-06T20:21:43.164Z,20.70
2018-11-06T20:24:12.667Z,19.17
2018-11-06T20:26:42.590Z,21.60
2018-11-06T20:29:12.067Z,22.50
2018-11-06T20:31:41.466Z,21.20
2018-11-06T20:34:11.563Z,25.13
2018-11-06T20:36:40.865Z,21.10
2018-11-06T20:39:11.076Z,25.00
2018-11-06T20:41:43.063Z,22.10
2018-11-06T20:44:13.575Z,21.30
2018-11-06T20:46:43.692Z,25.20
2018-11-06T20:49:12.860Z,22.07
2018-11-06T20:51:43.636Z,20.27
2018-11-06T20:54:13.041Z,20.53
2018-11-06T20:56:42.613Z,20.53
2018-11-06T20:59:11.849Z,20.73
2018-11-06T21:01:41.069Z,21.30
2018-11-06T21:04:11.019Z,21.03
2018-11-06T21:06:40.330Z,22.27
2018-11-06T21:09:11.207Z,18.83
2018-11-06T21:11:41.168Z,20.37
2018-11-06T21:14:10.432Z,18.40
2018-11-06T21:16:39.543Z,17.50
2018-11-06T21:19:08.764Z,18.50
2018-11-06T21:21:37.833Z,18.43
2018-11-06T21:24:07.067Z,20.17
2018-11-06T21:26:36.415Z,17.20
2018-11-06T21:29:05.483Z,18.70
2018-11-06T21:31:35.023Z,19.73
2018-11-06T21:34:04.186Z,20.43
2018-11-06T21:36:33.283Z,18.73
2018-11-06T21:39:02.170Z,16.93
2018-11-06T21:41:31.167Z,16.13
2018-11-06T21:43:59.980Z,16.03
2018-11-06T21:46:28.871Z,15.87
2018-11-06T21:48:57.694Z,17.80
2018-11-06T21:51:26.644Z,17.83
2018-11-06T21:53:55.434Z,18.70
2018-11-06T21:56:24.170Z,16.87
2018-11-06T21:58:52.874Z,16.60
2018-11-06T22:01:21.666Z,18.77
2018-11-06T22:03:50.443Z,20.43
2018-11-06T22:06:19.440Z,22.70
2018-11-06T22:08:48.112Z,22.57
2018-11-06T22:11:17.828Z,22.47
2018-11-06T22:13:47.572Z,23.57
2018-11-06T22:16:17.207Z,21.80
2018-11-06T22:18:46.066Z,22.67
2018-11-06T22:21:14.843Z,22.90
2018-11-06T22:23:43.555Z,23.80
2018-11-06T22:26:12.300Z,22.23
2018-11-06T22:28:41.205Z,22.07
2018-11-06T22:31:10.098Z,22.57
2018-11-06T22:33:38.739Z,21.50
2018-11-06T22:36:07.457Z,22.00
2018-11-06T22:38:36.247Z,20.70
2018-11-06T22:41:05.040Z,22.20
2018-11-06T22:43:33.772Z,22.67
2018-11-06T22:46:02.568Z,23.20
2018-11-06T22:48:31.377Z,28.27
2018-11-06T22:51:00.596Z,24.77
2018-11-06T22:53:29.374Z,29.40
2018-11-06T22:55:58.145Z,25.83
2018-11-06T22:58:27.758Z,25.43
2018-11-06T23:01:01.657Z,21.90
2018-11-06T23:03:30.876Z,22.40
2018-11-06T23:05:59.874Z,24.00
2018-11-06T23:08:29.466Z,20.70
2018-11-06T23:10:58.306Z,22.30
2018-11-06T23:13:27.121Z,23.00
2018-11-06T23:15:55.934Z,22.30
2018-11-06T23:18:24.709Z,22.03
2018-11-06T23:20:53.373Z,21.37
2018-11-06T23:23:22.484Z,24.60
2018-11-06T23:25:51.344Z,23.60
2018-11-06T23:28:20.085Z,23.47
2018-11-06T23:30:48.817Z,19.53
2018-11-06T23:33:17.562Z,23.47
2018-11-06T23:35:46.367Z,19.50
2018-11-06T23:38:15.139Z,20.07
2018-11-06T23:40:43.758Z,19.77
2018-11-06T23:43:12.589Z,17.13
2018-11-06T23:45:41.459Z,19.80
2018-11-06T23:48:10.269Z,18.87
2018-11-06T23:50:39.138Z,17.57
2018-11-06T23:53:07.910Z,20.30
2018-11-06T23:55:36.738Z,20.00
2018-11-06T23:58:05.762Z,17.53
